Time;durP1;ratioP1;P1;durP2;ratioP2;P2;SDS_P1;SDS_P2;PMS_P1;PMS_P2;Temp;Humidity;BMP_temperature;BMP_pressure;BME280_temperature;BME280_humidity;BME280_pressure;Samples;Min_cycle;Max_cycle;Signal;HPM_P1;HPM_P2
2021/07/11 00:00:33;;;;;;;7.57;6.43;;;;;;;13.88;91.84;101400.88;5052964;28;20032;-72
2021/07/11 00:02:59;;;;;;;11.65;7.30;;;;;;;13.88;92.03;101402.72;5070156;28;20466;-72
2021/07/11 00:05:25;;;;;;;7.70;6.17;;;;;;;13.85;91.86;101400.38;5069478;28;20185;-72
2021/07/11 00:07:51;;;;;;;6.60;5.75;;;;;;;13.81;91.72;101393.66;5052422;28;20032;-72
2021/07/11 00:10:17;;;;;;;7.90;6.75;;;;;;;13.78;91.59;101386.78;5069297;28;20084;-72
2021/07/11 00:12:46;;;;;;;9.35;6.78;;;;;;;13.75;91.80;101392.50;5069132;28;20051;-72
2021/07/11 00:15:13;;;;;;;13.38;6.55;;;;;;;13.71;91.76;101394.66;5069233;28;20032;-72
2021/07/11 00:17:43;;;;;;;8.82;7.35;;;;;;;13.72;91.90;101387.47;5052164;28;20035;-71
2021/07/11 00:20:13;;;;;;;8.63;7.45;;;;;;;13.71;92.13;101393.81;5070085;28;20170;-72
2021/07/11 00:22:39;;;;;;;11.18;6.47;;;;;;;13.69;91.86;101391.28;5069159;28;20420;-72
2021/07/11 00:25:07;;;;;;;10.38;6.18;;;;;;;13.70;92.05;101384.94;5068855;28;20032;-72
2021/07/11 00:27:33;;;;;;;9.30;6.90;;;;;;;13.73;92.22;101383.75;5069043;28;20040;-72
2021/07/11 00:29:59;;;;;;;7.45;6.65;;;;;;;13.76;92.81;101388.78;5069133;28;20036;-72
2021/07/11 00:32:25;;;;;;;7.72;6.93;;;;;;;13.78;92.86;101392.16;5070053;28;20034;-72
2021/07/11 00:34:51;;;;;;;10.77;8.82;;;;;;;13.76;92.72;101385.28;5069924;28;20118;-72
2021/07/11 00:37:16;;;;;;;10.37;7.43;;;;;;;13.76;93.19;101394.16;5052234;28;20036;-72
2021/07/11 00:39:42;;;;;;;8.10;6.83;;;;;;;13.80;93.33;101389.31;5068803;28;20390;-72
2021/07/11 00:42:12;;;;;;;8.63;5.90;;;;;;;13.72;93.64;101379.41;5068507;28;20043;-72
2021/07/11 00:44:38;;;;;;;11.98;7.88;;;;;;;13.77;93.43;101392.34;5069513;28;20410;-72
2021/07/11 00:47:04;;;;;;;;;;;;;;;13.75;93.16;101387.13;5052555;28;20190;-72
2021/07/11 00:49:30;;;;;;;;;;;;;;;13.69;92.99;101387.78;5052702;28;20010;-72
2021/07/11 00:51:58;;;;;;;11.50;7.13;;;;;;;13.60;93.26;101383.41;5068834;28;19916;-72
2021/07/11 00:54:23;;;;;;;9.70;6.57;;;;;;;13.59;93.59;101387.13;5068800;28;20047;-72
2021/07/11 00:56:49;;;;;;;8.38;7.47;;;;;;;13.55;93.83;101385.75;5068591;28;20024;-72
2021/07/11 00:59:21;;;;;;;11.00;7.13;;;;;;;13.53;93.80;101391.28;5068955;28;20041;-72
2021/07/11 01:01:56;;;;;;;7.68;6.57;;;;;;;13.52;93.45;101393.13;5052035;28;20098;-72
2021/07/11 01:04:37;;;;;;;10.40;6.97;;;;;;;13.47;93.58;101391.97;5068753;28;20124;-72
2021/07/11 01:07:06;;;;;;;11.13;7.28;;;;;;;13.46;93.36;101388.44;5051816;28;20112;-72
2021/07/11 01:09:41;;;;;;;7.60;6.63;;;;;;;13.41;93.25;101396.13;5068371;28;20025;-72
2021/07/11 01:12:20;;;;;;;10.40;7.15;;;;;;;13.38;93.07;101399.16;5051923;28;20347;-72
2021/07/11 01:14:48;;;;;;;10.75;6.18;;;;;;;13.33;93.14;101406.84;5051636;28;20397;-72
2021/07/11 01:17:18;;;;;;;8.00;6.45;;;;;;;13.35;93.10;101402.19;5067961;28;20036;-72
2021/07/11 01:19:48;;;;;;;8.02;6.63;;;;;;;13.35;93.13;101412.06;5068640;28;20028;-72
2021/07/11 01:22:19;;;;;;;7.93;7.13;;;;;;;13.39;93.21;101416.06;5068129;28;20029;-72
2021/07/11 01:25:01;;;;;;;9.95;7.50;;;;;;;13.43;93.72;101414.75;5068648;28;20493;-72
2021/07/11 01:27:32;;;;;;;9.55;7.70;;;;;;;13.36;92.91;101416.41;5068077;28;20911;-72
2021/07/11 01:29:58;;;;;;;8.93;7.85;;;;;;;13.32;93.15;101412.38;5071976;28;20386;-72
2021/07/11 01:32:26;;;;;;;9.70;7.20;;;;;;;13.35;93.38;101415.59;5055241;28;20044;-72
2021/07/11 01:34:53;;;;;;;9.98;7.22;;;;;;;13.35;93.15;101412.91;5055594;28;20037;-72
2021/07/11 01:37:19;;;;;;;8.43;7.07;;;;;;;13.38;93.26;101419.78;5072740;28;20040;-71
2021/07/11 01:39:46;;;;;;;11.88;7.53;;;;;;;13.37;93.79;101408.22;5071971;28;20048;-72
2021/07/11 01:42:14;;;;;;;9.00;6.75;;;;;;;13.44;93.70;101417.28;5072595;28;20355;-72
2021/07/11 01:44:41;;;;;;;12.25;7.70;;;;;;;13.44;93.68;101422.66;5072362;28;20028;-72
2021/07/11 01:47:08;;;;;;;7.57;6.78;;;;;;;13.38;93.77;101420.59;5071833;28;20040;-72
2021/07/11 01:49:36;;;;;;;8.55;6.70;;;;;;;13.37;93.80;101421.63;5071522;28;20465;-72
2021/07/11 01:52:04;;;;;;;7.63;6.78;;;;;;;13.37;94.08;101421.63;5072922;28;20028;-72
2021/07/11 01:54:29;;;;;;;13.88;11.07;;;;;;;13.39;94.20;101432.16;5071409;28;20089;-72
2021/07/11 01:56:57;;;;;;;11.80;9.65;;;;;;;13.35;94.04;101431.69;5055179;28;20466;-72
2021/07/11 01:59:23;;;;;;;12.73;8.55;;;;;;;13.30;93.84;101431.34;5072482;28;20097;-72
2021/07/11 02:02:00;;;;;;;10.85;7.25;;;;;;;13.27;93.96;101432.50;5071635;28;20028;-72
2021/07/11 02:04:28;;;;;;;12.48;7.78;;;;;;;13.27;93.92;101436.97;5071272;28;20032;-72
2021/07/11 02:06:54;;;;;;;11.37;7.10;;;;;;;13.22;93.64;101424.06;5071380;28;20362;-72
2021/07/11 02:09:22;;;;;;;7.28;6.55;;;;;;;13.19;93.26;101434.28;5071444;28;20479;-72
2021/07/11 02:11:55;;;;;;;7.90;6.75;;;;;;;13.18;93.69;101435.25;5071346;28;20032;-72
2021/07/11 02:14:30;;;;;;;7.38;6.45;;;;;;;13.17;93.49;101430.91;5055173;28;20046;-72
2021/07/11 02:17:18;;;;;;;8.15;6.43;;;;;;;13.17;93.34;101425.56;5071036;28;20060;-72
2021/07/11 02:20:01;;;;;;;9.60;6.85;;;;;;;13.15;93.71;101423.03;5071253;28;20074;-72
2021/07/11 02:22:28;;;;;;;8.77;6.55;;;;;;;13.14;93.31;101431.25;5071277;28;20040;-73
2021/07/11 02:24:57;;;;;;;7.65;6.07;;;;;;;13.13;93.55;101437.59;5071314;28;20543;-73
2021/07/11 02:27:29;;;;;;;8.68;5.97;;;;;;;13.09;93.41;101423.69;5054993;28;20137;-72
2021/07/11 02:29:57;;;;;;;8.57;6.53;;;;;;;13.09;93.34;101435.25;5071430;28;20090;-72
2021/07/11 02:32:24;;;;;;;11.00;6.85;;;;;;;13.09;93.68;101426.38;5071678;28;20024;-72
2021/07/11 02:34:50;;;;;;;7.95;7.15;;;;;;;13.10;93.94;101426.19;5071146;28;20047;-72
2021/07/11 02:37:19;;;;;;;10.35;6.40;;;;;;;13.07;93.34;101431.88;5070568;28;20041;-72
2021/07/11 02:39:49;;;;;;;10.25;6.88;;;;;;;13.02;93.40;101423.50;5070935;28;20081;-72
2021/07/11 02:42:17;;;;;;;7.72;5.97;;;;;;;13.03;93.33;101427.84;5070516;28;20047;-72
2021/07/11 02:44:49;;;;;;;9.85;6.90;;;;;;;13.01;93.66;101432.53;5070765;28;20034;-72
2021/07/11 02:47:24;;;;;;;8.00;6.35;;;;;;;13.02;93.35;101426.19;5070484;28;20028;-72
2021/07/11 02:49:58;;;;;;;11.30;6.68;;;;;;;12.99;93.07;101434.53;5070960;28;20162;-72
2021/07/11 02:52:25;;;;;;;8.88;6.85;;;;;;;13.00;92.99;101424.66;5071533;28;20021;-72
2021/07/11 02:55:06;;;;;;;6.57;5.60;;;;;;;12.99;93.09;101433.69;5054129;28;20028;-72
2021/07/11 02:57:36;;;;;;;8.13;7.20;;;;;;;12.99;93.23;101434.53;5070133;28;20036;-72
2021/07/11 03:00:06;;;;;;;9.32;6.18;;;;;;;12.97;93.22;101431.19;5070829;28;20044;-72
2021/07/11 03:02:39;;;;;;;8.68;6.30;;;;;;;12.95;92.88;101425.16;5038713;28;20036;-72
2021/07/11 03:05:09;;;;;;;9.93;6.20;;;;;;;12.94;93.07;101426.13;5070582;28;20028;-72
2021/07/11 03:07:35;;;;;;;11.77;6.70;;;;;;;12.96;93.03;101416.09;5053638;28;20534;-72
2021/07/11 03:10:01;;;;;;;;;;;;;;;13.02;93.01;101428.88;5054196;28;20032;-72
2021/07/11 03:12:27;;;;;;;;;;;;;;;13.08;93.90;101425.50;5071734;28;20011;-72
2021/07/11 03:14:53;;;;;;;8.20;6.97;;;;;;;13.07;93.43;101426.53;5070013;28;20223;-72
2021/07/11 03:17:24;;;;;;;7.30;6.40;;;;;;;13.05;93.46;101433.06;5070179;28;20036;-72
2021/07/11 03:19:52;;;;;;;9.63;6.15;;;;;;;13.02;93.33;101434.22;5070029;28;20497;-72
2021/07/11 03:22:22;;;;;;;7.82;5.90;;;;;;;13.08;93.52;101432.72;5070124;28;20056;-72
2021/07/11 03:24:49;;;;;;;9.43;6.10;;;;;;;13.10;93.94;101436.91;5069752;28;20047;-71
2021/07/11 03:27:16;;;;;;;7.43;5.65;;;;;;;13.13;93.49;101434.91;5069966;28;20374;-72
2021/07/11 03:29:53;;;;;;;8.30;5.63;;;;;;;13.14;93.32;101424.03;5070913;28;20042;-72
2021/07/11 03:32:20;;;;;;;6.60;5.82;;;;;;;13.18;93.42;101427.22;5070195;28;20109;-72
2021/07/11 03:34:48;;;;;;;7.00;5.72;;;;;;;13.20;93.17;101426.06;5069663;28;20043;-72
2021/07/11 03:37:20;;;;;;;9.43;7.38;;;;;;;13.26;93.64;101430.78;5053825;28;20036;-72
2021/07/11 03:39:48;;;;;;;7.05;6.35;;;;;;;13.26;93.73;101419.22;5069941;28;20059;-72
2021/07/11 03:42:19;;;;;;;8.02;6.10;;;;;;;13.29;93.59;101424.28;5069757;28;20115;-72
2021/07/11 03:44:48;;;;;;;9.95;6.60;;;;;;;13.26;92.98;101424.56;5070675;28;20104;-72
2021/07/11 03:47:17;;;;;;;7.82;6.07;;;;;;;13.31;93.21;101433.00;5070324;28;20024;-72
2021/07/11 03:49:46;;;;;;;9.13;7.32;;;;;;;13.36;93.51;101424.47;5069689;28;20087;-72
2021/07/11 03:52:14;;;;;;;8.48;6.40;;;;;;;13.37;93.13;101432.34;5069073;28;20032;-72
2021/07/11 03:54:42;;;;;;;10.95;7.05;;;;;;;13.46;93.75;101431.38;5069594;28;20064;-72
2021/07/11 03:57:09;;;;;;;9.30;6.72;;;;;;;13.51;93.55;101434.41;5070315;28;20453;-72
2021/07/11 03:59:36;;;;;;;11.00;7.80;;;;;;;13.54;93.41;101432.38;5069751;28;20040;-72
2021/07/11 04:02:03;;;;;;;;;;;;;;;13.56;93.09;101425.00;5069601;28;20082;-72
2021/07/11 04:04:31;;;;;;;10.25;6.85;;;;;;;13.65;93.17;101424.00;5052765;28;19912;-72
2021/07/11 04:06:57;;;;;;;8.82;6.60;;;;;;;13.70;93.06;101427.88;5070183;28;20092;-72
2021/07/11 04:09:23;;;;;;;11.35;7.47;;;;;;;13.78;93.17;101421.66;5070669;28;20056;-72
2021/07/11 04:11:49;;;;;;;7.13;5.53;;;;;;;13.83;92.51;101431.91;5069288;28;20843;-72
2021/07/11 04:14:16;;;;;;;9.18;5.80;;;;;;;13.96;92.51;101429.56;5069283;28;20454;-72
2021/07/11 04:16:44;;;;;;;13.77;7.65;;;;;;;14.08;92.51;101430.91;5068996;28;20082;-71
2021/07/11 04:19:10;;;;;;;9.40;6.03;;;;;;;14.18;92.36;101428.03;5069289;28;20036;-72
2021/07/11 04:21:38;;;;;;;7.18;6.47;;;;;;;14.36;92.86;101423.31;5070127;28;20133;-72
2021/07/11 04:24:04;;;;;;;6.78;6.00;;;;;;;14.57;92.25;101430.84;5052394;28;20182;-72
2021/07/11 04:26:34;;;;;;;7.82;6.15;;;;;;;14.69;92.56;101434.00;5070066;28;20051;-71
2021/07/11 04:29:01;;;;;;;8.38;7.45;;;;;;;14.87;92.49;101432.94;5070160;28;20039;-72
2021/07/11 04:31:26;;;;;;;11.55;7.25;;;;;;;15.09;92.15;101428.63;5069166;28;20028;-72
2021/07/11 04:33:52;;;;;;;7.93;6.03;;;;;;;15.22;91.83;101428.91;5069138;28;20037;-72
2021/07/11 04:36:17;;;;;;;7.20;6.10;;;;;;;15.39;91.70;101435.03;5069078;28;20702;-72
2021/07/11 04:38:43;;;;;;;6.37;5.73;;;;;;;15.53;91.64;101439.66;5069359;28;20946;-72
2021/07/11 04:41:10;;;;;;;9.10;6.47;;;;;;;15.61;90.93;101431.50;5069813;28;20118;-72
2021/07/11 04:43:38;;;;;;;7.28;5.45;;;;;;;15.68;90.19;101441.56;5068965;28;20043;-72
2021/07/11 04:46:04;;;;;;;8.10;6.20;;;;;;;15.76;89.81;101436.19;5068619;28;20025;-72
2021/07/11 04:48:29;;;;;;;8.47;5.10;;;;;;;15.85;89.29;101434.25;5069052;28;20150;-72
2021/07/11 04:50:55;;;;;;;7.77;5.67;;;;;;;15.91;89.49;101436.22;5068945;28;20468;-72
2021/07/11 04:53:20;;;;;;;6.97;5.40;;;;;;;15.97;88.62;101428.25;5069869;28;20028;-72
2021/07/11 04:55:48;;;;;;;6.27;5.60;;;;;;;16.07;88.09;101443.34;5069498;28;20039;-73
2021/07/11 04:58:14;;;;;;;10.73;6.00;;;;;;;16.17;87.38;101446.59;5069762;28;20032;-73
2021/07/11 05:00:40;;;;;;;5.35;4.50;;;;;;;16.28;86.59;101438.06;5069674;28;20027;-73
2021/07/11 05:03:06;;;;;;;8.98;5.05;;;;;;;16.42;86.14;101441.81;5052595;28;20040;-73
2021/07/11 05:05:34;;;;;;;8.37;4.63;;;;;;;16.57;85.77;101442.66;5073717;28;20025;-73
2021/07/11 05:08:00;;;;;;;6.65;4.35;;;;;;;16.78;84.85;101451.88;5072425;28;20029;-73
2021/07/11 05:10:25;;;;;;;6.13;3.70;;;;;;;17.02;83.42;101446.22;5073050;28;20121;-73
2021/07/11 05:12:51;;;;;;;3.67;3.37;;;;;;;17.23;82.46;101458.06;5073238;28;20028;-73
2021/07/11 05:15:16;;;;;;;8.03;4.27;;;;;;;17.37;82.04;101461.78;5055781;28;20047;-73
2021/07/11 05:17:41;;;;;;;4.90;3.90;;;;;;;17.48;81.68;101463.97;5055262;28;20036;-73
2021/07/11 05:20:08;;;;;;;5.47;3.53;;;;;;;17.43;80.78;101456.44;5073532;28;20075;-73
2021/07/11 05:22:34;;;;;;;4.70;3.67;;;;;;;17.47;80.87;101462.31;5071985;28;20078;-73
2021/07/11 05:24:59;;;;;;;6.70;3.10;;;;;;;17.59;81.08;101452.69;5072275;28;20467;-73
2021/07/11 05:27:27;;;;;;;5.23;3.57;;;;;;;17.70;79.61;101460.28;5071708;28;20282;-73
2021/07/11 05:29:52;;;;;;;7.35;3.53;;;;;;;17.91;79.42;101458.63;5072166;28;20054;-73
2021/07/11 05:32:17;;;;;;;3.43;2.73;;;;;;;18.13;78.06;101441.38;5071958;28;20438;-73
2021/07/11 05:34:43;;;;;;;4.13;2.90;;;;;;;18.59;76.63;101455.41;5071320;28;20028;-73
2021/07/11 05:37:08;;;;;;;6.07;3.17;;;;;;;19.05;73.45;101455.72;5070402;28;20064;-73
2021/07/11 05:39:34;;;;;;;8.90;3.30;;;;;;;19.51;71.50;101459.63;5071341;28;20036;-73
2021/07/11 05:41:59;;;;;;;4.75;2.70;;;;;;;20.13;70.31;101458.47;5068828;28;20044;-73
2021/07/11 05:44:24;;;;;;;5.33;2.80;;;;;;;20.51;67.70;101463.28;5070988;28;20075;-73
2021/07/11 05:46:50;;;;;;;2.33;2.13;;;;;;;20.97;65.87;101465.06;5071134;28;20028;-73
2021/07/11 05:49:15;;;;;;;2.57;2.37;;;;;;;21.73;64.20;101463.47;5072372;28;20028;-73
2021/07/11 05:51:40;;;;;;;8.63;2.37;;;;;;;22.21;60.81;101476.50;5072729;28;20459;-73
2021/07/11 05:54:06;;;;;;;4.27;2.13;;;;;;;22.40;59.60;101471.94;5071644;28;20123;-73
2021/07/11 05:56:31;;;;;;;2.27;2.07;;;;;;;22.85;58.41;101476.31;5072305;28;20056;-73
2021/07/11 05:58:56;;;;;;;2.83;2.10;;;;;;;23.39;56.54;101477.38;5072976;28;20024;-73
2021/07/11 06:01:22;;;;;;;3.33;2.10;;;;;;;23.52;56.86;101474.44;5072184;28;20412;-73
2021/07/11 06:03:48;;;;;;;1.70;1.60;;;;;;;23.72;56.07;101478.81;5071853;28;20044;-73
2021/07/11 06:06:13;;;;;;;2.90;1.70;;;;;;;24.00;56.23;101472.75;5070937;28;20569;-73
2021/07/11 06:08:38;;;;;;;2.77;2.30;;;;;;;24.09;55.43;101470.47;5071792;28;20056;-73
2021/07/11 06:11:03;;;;;;;5.10;1.50;;;;;;;24.46;53.00;101468.38;5071465;28;20044;-74
2021/07/11 06:13:29;;;;;;;3.13;2.23;;;;;;;24.11;53.60;101466.44;5072499;28;20025;-74
2021/07/11 06:15:54;;;;;;;2.28;1.67;;;;;;;23.75;55.13;101468.28;5070278;28;20032;-73
2021/07/11 06:18:20;;;;;;;2.60;1.58;;;;;;;24.18;55.36;101469.06;5071494;28;20408;-73
2021/07/11 06:20:45;;;;;;;3.87;1.83;;;;;;;24.36;54.55;101470.88;5071371;28;20028;-73
2021/07/11 06:23:11;;;;;;;2.30;1.90;;;;;;;24.30;53.32;101466.34;5070972;28;20063;-73
2021/07/11 06:25:37;;;;;;;1.95;1.73;;;;;;;23.93;54.21;101466.56;5072242;28;20033;-73
2021/07/11 06:28:03;;;;;;;1.58;1.42;;;;;;;24.54;52.64;101473.53;5070777;28;20040;-73
2021/07/11 06:30:28;;;;;;;4.00;1.40;;;;;;;24.73;53.09;101473.38;5072143;28;20098;-73
2021/07/11 06:32:54;;;;;;;1.60;1.47;;;;;;;25.18;51.72;101473.53;5070796;28;20040;-73
2021/07/11 06:35:21;;;;;;;2.90;1.43;;;;;;;24.64;52.61;101472.91;5072098;28;20120;-74
2021/07/11 06:37:48;;;;;;;4.22;1.90;;;;;;;24.59;52.38;101476.38;5070570;28;20450;-74
2021/07/11 06:40:16;;;;;;;2.20;1.35;;;;;;;24.73;52.65;101476.94;5070395;28;20529;-74
2021/07/11 06:42:42;;;;;;;3.05;1.65;;;;;;;24.93;52.06;101473.81;5071011;28;20123;-74
2021/07/11 06:45:09;;;;;;;2.88;1.75;;;;;;;24.79;51.37;101470.50;5070892;28;20438;-74
2021/07/11 06:47:34;;;;;;;3.63;1.88;;;;;;;24.92;51.68;101474.06;5071537;28;20047;-73
2021/07/11 06:50:00;;;;;;;2.67;1.98;;;;;;;24.68;50.97;101474.09;5070731;28;20024;-73
2021/07/11 06:52:26;;;;;;;2.15;1.73;;;;;;;24.62;52.26;101466.84;5070748;28;20442;-73
2021/07/11 06:54:51;;;;;;;3.25;2.00;;;;;;;24.67;50.72;101472.44;5070410;28;20040;-74
2021/07/11 06:57:18;;;;;;;5.23;2.07;;;;;;;24.64;51.20;101472.91;5053853;28;20037;-74
2021/07/11 06:59:43;;;;;;;3.63;2.13;;;;;;;24.66;50.53;101470.78;5071327;28;20309;-74
2021/07/11 07:02:09;;;;;;;4.03;1.73;;;;;;;24.81;51.62;101482.03;5071427;28;20385;-74
2021/07/11 07:04:34;;;;;;;8.27;3.07;;;;;;;24.58;51.63;101479.31;5070200;28;20454;-74
2021/07/11 07:06:59;;;;;;;2.20;1.70;;;;;;;24.81;52.26;101484.75;5071307;28;20032;-74
2021/07/11 07:09:25;;;;;;;2.43;2.00;;;;;;;24.35;53.08;101486.44;5069768;28;20103;-74
2021/07/11 07:11:50;;;;;;;2.17;1.93;;;;;;;24.59;51.20;101486.47;5069688;28;20136;-74
2021/07/11 07:14:15;;;;;;;2.53;2.20;;;;;;;24.88;51.71;101490.09;5068544;28;20588;-74
2021/07/11 07:16:41;;;;;;;2.33;2.03;;;;;;;24.43;52.90;101482.50;5069389;28;20352;-74
2021/07/11 07:19:06;;;;;;;1.97;1.70;;;;;;;24.73;52.19;101479.69;5052018;28;20040;-74
2021/07/11 07:21:32;;;;;;;2.42;1.85;;;;;;;24.82;49.20;101480.16;5068577;28;20052;-73
2021/07/11 07:23:57;;;;;;;5.30;2.40;;;;;;;24.66;52.25;101475.41;5051636;28;20043;-74
2021/07/11 07:26:23;;;;;;;2.63;2.00;;;;;;;24.92;50.60;101479.53;5068603;28;20047;-74
2021/07/11 07:28:48;;;;;;;2.70;2.17;;;;;;;24.01;52.08;101479.84;5053526;28;20135;-74
2021/07/11 07:31:13;;;;;;;4.35;2.50;;;;;;;24.39;51.20;101482.13;5070720;28;20044;-74
2021/07/11 07:33:39;;;;;;;2.27;1.87;;;;;;;25.10;51.06;101481.25;5053339;28;20123;-74
2021/07/11 07:36:04;;;;;;;3.77;2.33;;;;;;;23.33;52.77;101481.84;5069425;28;20139;-74
2021/07/11 07:38:30;;;;;;;6.00;2.95;;;;;;;23.95;53.53;101486.22;5070864;28;20025;-74
2021/07/11 07:40:55;;;;;;;6.03;2.33;;;;;;;24.59;51.87;101481.81;5068948;28;20607;-74
2021/07/11 07:43:20;;;;;;;2.63;2.20;;;;;;;24.94;50.60;101483.69;5070618;28;20541;-74
2021/07/11 07:45:46;;;;;;;3.40;2.77;;;;;;;24.97;50.90;101485.09;5069347;28;20464;-74
2021/07/11 07:48:12;;;;;;;2.70;2.10;;;;;;;24.76;52.23;101481.09;5070458;28;20115;-74
2021/07/11 07:50:38;;;;;;;4.50;2.22;;;;;;;24.74;51.41;101481.31;5069570;28;20032;-74
2021/07/11 07:53:04;;;;;;;4.88;2.58;;;;;;;25.34;50.80;101476.59;5052850;28;20027;-75
2021/07/11 07:55:31;;;;;;;2.60;2.40;;;;;;;25.35;50.49;101475.50;5070467;28;20047;-75
2021/07/11 07:57:57;;;;;;;5.05;2.30;;;;;;;25.60;50.53;101470.53;5069217;28;20045;-74
2021/07/11 08:00:24;;;;;;;4.65;2.70;;;;;;;25.44;50.17;101476.78;5070497;28;20111;-74
2021/07/11 08:02:50;;;;;;;3.00;2.33;;;;;;;25.25;50.21;101471.50;5069167;28;20041;-74
2021/07/11 08:05:16;;;;;;;3.97;2.47;;;;;;;24.79;52.10;101470.50;5069266;28;20056;-73
2021/07/11 08:07:41;;;;;;;4.15;2.33;;;;;;;25.34;51.42;101469.22;5068979;28;20416;-74
2021/07/11 08:10:09;;;;;;;4.57;2.73;;;;;;;24.72;52.81;101469.81;5070416;28;20366;-74
2021/07/11 08:12:34;;;;;;;4.93;2.50;;;;;;;25.19;51.70;101474.38;5069936;28;20036;-74
2021/07/11 08:15:00;;;;;;;7.67;2.80;;;;;;;25.70;51.88;101470.69;5070208;28;20094;-74
2021/07/11 08:17:25;;;;;;;3.13;2.60;;;;;;;24.53;53.25;101460.09;5069641;28;20039;-74
2021/07/11 08:19:51;;;;;;;5.30;2.95;;;;;;;25.56;51.16;101469.34;5069249;28;20044;-74
2021/07/11 08:22:16;;;;;;;3.73;2.87;;;;;;;25.87;50.01;101472.66;5069918;28;20039;-74
2021/07/11 08:24:42;;;;;;;5.83;2.60;;;;;;;25.60;52.16;101473.25;5069136;28;20060;-74
2021/07/11 08:27:07;;;;;;;6.20;2.90;;;;;;;26.21;50.69;101468.03;5068865;28;20068;-74
2021/07/11 08:29:33;;;;;;;2.50;2.10;;;;;;;26.23;50.32;101473.28;5070107;28;20070;-74
2021/07/11 08:31:58;;;;;;;2.92;2.20;;;;;;;26.26;49.04;101473.59;5069014;28;20089;-74
2021/07/11 08:34:24;;;;;;;3.00;2.38;;;;;;;26.63;48.75;101475.81;5069785;28;20040;-74
2021/07/11 08:36:52;;;;;;;7.13;3.15;;;;;;;26.08;49.47;101474.69;5068566;28;20024;-74
2021/07/11 08:39:18;;;;;;;3.28;2.97;;;;;;;26.03;49.28;101480.06;5069822;28;20090;-74
2021/07/11 08:41:45;;;;;;;3.95;3.30;;;;;;;26.16;49.10;101473.44;5068596;28;20044;-74
2021/07/11 08:44:11;;;;;;;3.50;2.80;;;;;;;24.77;49.76;101472.66;5068648;28;20032;-74
2021/07/11 08:46:38;;;;;;;3.10;2.40;;;;;;;24.77;52.83;101472.66;5068650;28;20043;-74
2021/07/11 08:49:06;;;;;;;5.03;3.15;;;;;;;26.02;50.30;101481.16;5068663;28;20291;-75
2021/07/11 08:51:32;;;;;;;3.92;3.15;;;;;;;24.66;50.63;101476.25;5068788;28;20064;-74
2021/07/11 08:53:58;;;;;;;4.30;3.22;;;;;;;24.13;52.73;101482.59;5069744;28;20089;-74
2021/07/11 08:56:25;;;;;;;5.88;3.10;;;;;;;24.31;53.37;101476.22;5068640;28;20401;-74
2021/07/11 08:58:56;;;;;;;3.47;3.17;;;;;;;25.57;50.19;101473.75;5068867;28;20036;-74
2021/07/11 09:01:25;;;;;;;3.85;3.45;;;;;;;26.01;49.55;101479.50;5068339;28;20127;-74
2021/07/11 09:04:10;;;;;;;3.08;2.80;;;;;;;26.12;50.95;101472.28;5069706;28;20040;-74
2021/07/11 09:06:43;;;;;;;3.30;2.60;;;;;;;26.56;48.72;101480.66;5068562;28;20036;-74
2021/07/11 09:09:10;;;;;;;4.60;3.58;;;;;;;26.53;46.53;101479.22;5069685;28;20067;-75
2021/07/11 09:11:50;;;;;;;4.53;3.10;;;;;;;25.49;48.04;101474.13;5069285;28;20110;-74
2021/07/11 09:14:17;;;;;;;6.28;3.17;;;;;;;26.05;50.60;101479.81;5068442;28;20036;-75
2021/07/11 09:16:46;;;;;;;4.10;3.60;;;;;;;25.24;49.97;101485.44;5069202;28;20047;-75
2021/07/11 09:19:29;;;;;;;4.35;3.42;;;;;;;26.25;48.92;101482.88;5068515;28;20111;-75
2021/07/11 09:22:08;;;;;;;3.75;3.35;;;;;;;26.81;47.25;101469.22;5051603;28;20525;-75
2021/07/11 09:24:35;;;;;;;3.22;2.95;;;;;;;27.16;46.42;101477.06;5068210;28;20037;-75
2021/07/11 09:27:15;;;;;;;4.30;3.45;;;;;;;25.94;48.86;101475.25;5068019;28;20036;-75
2021/07/11 09:29:43;;;;;;;3.00;2.63;;;;;;;26.79;45.95;101470.56;5068583;28;20078;-75
2021/07/11 09:32:20;;;;;;;3.95;3.30;;;;;;;26.44;47.79;101472.50;5051494;28;20155;-75
2021/07/11 09:34:46;;;;;;;5.30;3.95;;;;;;;26.41;46.05;101474.91;5069234;28;20032;-75
2021/07/11 09:37:17;;;;;;;5.00;4.47;;;;;;;25.92;47.07;101472.78;5069124;28;20028;-75
2021/07/11 09:39:54;;;;;;;4.03;3.63;;;;;;;25.81;47.26;101466.25;5069409;28;20029;-75
2021/07/11 09:42:28;;;;;;;5.82;4.53;;;;;;;24.92;46.72;101463.16;5067351;28;20056;-75
2021/07/11 09:44:54;;;;;;;7.78;4.28;;;;;;;25.37;47.27;101459.69;5051517;28;20036;-76
2021/07/11 09:47:25;;;;;;;6.30;4.07;;;;;;;25.98;45.49;101468.22;5068077;28;20033;-75
2021/07/11 09:50:10;;;;;;;5.43;4.63;;;;;;;25.45;48.48;101462.88;5070955;28;20032;-75
2021/07/11 09:52:41;;;;;;;5.38;3.85;;;;;;;26.91;46.31;101468.53;5071687;28;20039;-76
2021/07/11 09:55:08;;;;;;;5.53;4.40;;;;;;;27.04;45.43;101461.81;5072559;28;20361;-75
2021/07/11 09:57:36;;;;;;;5.07;3.58;;;;;;;27.44;45.77;101466.13;5072343;28;20028;-75
2021/07/11 10:00:06;;;;;;;5.63;3.50;;;;;;;28.14;43.88;101467.94;5055059;28;20036;-75
2021/07/11 10:02:36;;;;;;;4.82;3.75;;;;;;;28.40;43.48;101465.34;5071486;28;20072;-76
2021/07/11 10:05:02;;;;;;;5.32;3.60;;;;;;;28.29;43.02;101464.47;5072506;28;20040;-77
2021/07/11 10:07:28;;;;;;;7.53;4.05;;;;;;;28.34;44.09;101463.66;5071420;28;20029;-76
2021/07/11 10:09:53;;;;;;;5.97;3.80;;;;;;;28.93;42.25;101459.91;5054747;28;20143;-77
2021/07/11 10:12:19;;;;;;;5.50;3.50;;;;;;;28.82;43.41;101467.25;5071646;28;20112;-76
2021/07/11 10:14:45;;;;;;;3.33;3.03;;;;;;;29.05;42.97;101449.50;5071347;28;20047;-76
2021/07/11 10:17:11;;;;;;;4.55;3.65;;;;;;;28.69;41.74;101462.25;5071328;28;20040;-76
2021/07/11 10:19:37;;;;;;;4.32;3.58;;;;;;;28.74;42.26;101456.78;5072436;28;20083;-76
2021/07/11 10:22:11;;;;;;;7.32;3.38;;;;;;;28.42;44.31;101453.03;5072061;28;20036;-76
2021/07/11 10:24:41;;;;;;;5.32;3.08;;;;;;;28.19;44.83;101462.47;5072146;28;20446;-77
2021/07/11 10:27:27;;;;;;;3.95;3.55;;;;;;;28.95;42.49;101455.78;5071159;28;20527;-77
2021/07/11 10:29:56;;;;;;;5.60;3.20;;;;;;;28.77;44.48;101456.25;5071194;28;20036;-77
2021/07/11 10:32:27;;;;;;;2.80;2.60;;;;;;;28.98;43.14;101454.41;5070911;28;20503;-76
2021/07/11 10:34:52;;;;;;;3.40;3.10;;;;;;;28.99;42.10;101456.91;5071887;28;20499;-76
2021/07/11 10:37:22;;;;;;;3.42;3.00;;;;;;;29.14;42.72;101463.56;5070818;28;20037;-77
2021/07/11 10:40:08;;;;;;;12.70;4.60;;;;;;;29.49;42.45;101456.53;5071011;28;20486;-76
2021/07/11 10:42:34;;;;;;;3.80;3.50;;;;;;;29.14;42.43;101463.56;5071089;28;20097;-77
2021/07/11 10:45:09;;;;;;;4.40;3.65;;;;;;;29.09;42.49;101456.13;5072026;28;20036;-77
2021/07/11 10:47:36;;;;;;;3.40;3.10;;;;;;;28.77;42.14;101461.75;5070469;28;20048;-76
2021/07/11 10:50:03;;;;;;;4.20;3.50;;;;;;;28.93;42.40;101463.47;5071916;28;20484;-76
2021/07/11 10:52:29;;;;;;;7.43;3.97;;;;;;;28.86;41.77;101471.13;5071329;28;20085;-76
2021/07/11 10:54:59;;;;;;;6.03;3.42;;;;;;;28.57;42.26;101468.78;5071131;28;20032;-77
2021/07/11 10:57:29;;;;;;;3.95;3.20;;;;;;;28.09;42.48;101472.53;5069447;28;20040;-76
2021/07/11 10:59:54;;;;;;;3.50;3.20;;;;;;;28.28;43.24;101464.72;5071806;28;20139;-76
2021/07/11 11:02:24;;;;;;;5.43;3.80;;;;;;;28.81;43.32;101468.38;5071388;28;20115;-76
2021/07/11 11:05:12;;;;;;;6.45;3.17;;;;;;;29.27;41.50;101465.81;5070399;28;20048;-76
2021/07/11 11:07:40;;;;;;;4.45;3.25;;;;;;;29.57;41.24;101465.06;5053242;28;20752;-76
2021/07/11 11:10:17;;;;;;;3.90;3.42;;;;;;;29.34;42.16;101458.16;5071567;28;20106;-76
2021/07/11 11:12:42;;;;;;;3.88;3.15;;;;;;;29.43;40.78;101470.28;5070064;28;20024;-76
2021/07/11 11:15:17;;;;;;;4.72;3.33;;;;;;;29.20;43.29;101468.00;5070391;28;20571;-76
2021/07/11 11:17:42;;;;;;;5.70;3.60;;;;;;;28.31;42.39;101464.22;5069966;28;20043;-76
2021/07/11 11:20:14;;;;;;;4.18;3.55;;;;;;;28.60;42.58;101472.91;5070497;28;20452;-76
2021/07/11 11:22:53;;;;;;;4.25;2.90;;;;;;;28.98;42.55;101470.91;5070030;28;20041;-76
2021/07/11 11:25:22;;;;;;;4.13;3.47;;;;;;;28.93;41.88;101474.44;5053610;28;20456;-76
2021/07/11 11:27:53;;;;;;;4.10;3.05;;;;;;;29.54;41.66;101473.84;5053206;28;20032;-76